createdAt,value
2023-04-01T00:00:38.200Z,828.32
2023-04-01T00:01:38.137Z,828.57
2023-04-01T00:02:40.024Z,828.61
2023-04-01T00:03:38.339Z,828.63
2023-04-01T00:04:38.155Z,828.97
2023-04-01T00:05:39.595Z,828.94
2023-04-01T00:06:38.082Z,829.02
2023-04-01T00:07:38.077Z,830.19
2023-04-01T00:08:38.078Z,830.62
2023-04-01T00:09:38.068Z,830.38
2023-04-01T00:10:38.048Z,830.73
2023-04-01T00:11:38.042Z,831.51
2023-04-01T00:12:38.020Z,831.92
2023-04-01T00:13:37.996Z,831.92
2023-04-01T00:14:37.995Z,832.25
2023-04-01T00:15:38.011Z,831.48
2023-04-01T00:16:38.284Z,831.37
2023-04-01T00:17:38.021Z,831.59
2023-04-01T00:18:37.963Z,831.68
2023-04-01T00:19:37.952Z,832.10
2023-04-01T00:20:37.922Z,832.88
2023-04-01T00:21:37.972Z,833.00
2023-04-01T00:22:37.910Z,833.22
2023-04-01T00:23:37.898Z,832.73
2023-04-01T00:24:37.867Z,832.74
2023-04-01T00:25:37.871Z,833.26
2023-04-01T00:26:37.872Z,833.28
2023-04-01T00:27:37.865Z,833.24
2023-04-01T00:28:38.915Z,833.46
2023-04-01T00:29:37.820Z,834.03
2023-04-01T00:30:37.827Z,834.14
2023-04-01T00:31:37.859Z,834.41
2023-04-01T00:32:37.867Z,834.25
2023-04-01T00:33:37.830Z,834.04
2023-04-01T00:34:38.160Z,834.31
2023-04-01T00:35:37.769Z,834.19
2023-04-01T00:36:38.166Z,833.99
2023-04-01T00:37:40.571Z,834.54
2023-04-01T00:38:37.737Z,834.77
2023-04-01T00:39:37.717Z,834.68
2023-04-01T00:40:37.735Z,834.31
2023-04-01T00:41:37.693Z,834.19
2023-04-01T00:42:37.701Z,833.85
2023-04-01T00:43:37.675Z,833.99
2023-04-01T00:44:37.653Z,834.04
2023-04-01T00:45:38.696Z,834.07
2023-04-01T00:46:37.656Z,834.04
2023-04-01T00:47:37.722Z,834.02
2023-04-01T00:48:38.532Z,833.75
2023-04-01T00:49:39.056Z,833.75
2023-04-01T00:50:37.596Z,833.85
2023-04-01T00:51:38.749Z,833.41
2023-04-01T00:52:37.590Z,833.76
2023-04-01T00:53:38.529Z,834.07
2023-04-01T00:54:37.546Z,834.25
2023-04-01T00:55:38.347Z,834.17
2023-04-01T00:56:37.537Z,833.81
2023-04-01T00:57:47.252Z,833.13
2023-04-01T00:58:37.509Z,833.20
2023-04-01T00:59:37.484Z,833.38
2023-04-01T01:00:37.542Z,833.94
2023-04-01T01:01:38.924Z,833.72
2023-04-01T01:02:37.700Z,834.30
2023-04-01T01:03:37.478Z,834.99
2023-04-01T01:04:37.450Z,835.11
2023-04-01T01:05:46.318Z,835.41
2023-04-01T01:06:38.409Z,835.30
2023-04-01T01:07:37.431Z,835.57
2023-04-01T01:08:38.850Z,835.89
2023-04-01T01:09:37.369Z,836.06
2023-04-01T01:10:38.441Z,836.47
2023-04-01T01:11:43.187Z,836.02
2023-04-01T01:12:38.368Z,836.77
2023-04-01T01:13:37.632Z,837.12
2023-04-01T01:14:37.326Z,836.77
2023-04-01T01:15:37.314Z,836.60
2023-04-01T01:16:38.455Z,836.96
2023-04-01T01:17:37.338Z,837.23
2023-04-01T01:18:37.293Z,837.36
2023-04-01T01:19:37.277Z,837.93
2023-04-01T01:20:38.724Z,837.80
2023-04-01T01:21:38.430Z,838.03
2023-04-01T01:22:37.243Z,838.22
2023-04-01T01:23:37.235Z,838.90
2023-04-01T01:24:37.219Z,839.55
2023-04-01T01:25:37.213Z,840.40
2023-04-01T01:26:37.186Z,840.21
2023-04-01T01:27:37.201Z,840.24
2023-04-01T01:28:37.183Z,840.61
2023-04-01T01:29:37.169Z,841.53
2023-04-01T01:30:38.082Z,841.84
2023-04-01T01:31:37.124Z,842.30
2023-04-01T01:32:37.199Z,841.41
2023-04-01T01:33:37.129Z,841.50
2023-04-01T01:34:37.106Z,842.29
2023-04-01T01:35:37.403Z,842.62
2023-04-01T01:36:37.087Z,843.16
2023-04-01T01:37:37.082Z,844.13
2023-04-01T01:38:37.061Z,843.71
2023-04-01T01:39:37.057Z,843.91
2023-04-01T01:40:37.320Z,843.78
2023-04-01T01:41:38.040Z,843.17
2023-04-01T01:42:37.024Z,842.78
2023-04-01T01:43:37.014Z,842.26
2023-04-01T01:44:37.285Z,841.77
2023-04-01T01:45:36.983Z,842.18
2023-04-01T01:46:37.107Z,842.35
2023-04-01T01:47:37.035Z,842.74
2023-04-01T01:48:36.937Z,843.30
2023-04-01T01:49:36.937Z,843.67
2023-04-01T01:50:36.904Z,843.17
2023-04-01T01:51:36.903Z,843.20
2023-04-01T01:52:37.159Z,843.18
2023-04-01T01:53:37.201Z,842.71
2023-04-01T01:54:36.885Z,842.90
2023-04-01T01:55:36.892Z,843.09
2023-04-01T01:56:37.424Z,842.67
2023-04-01T01:57:36.843Z,841.77
2023-04-01T01:58:36.812Z,842.10
2023-04-01T01:59:36.842Z,841.99
2023-04-01T02:00:36.813Z,841.60
2023-04-01T02:01:36.937Z,840.62
2023-04-01T02:02:37.101Z,839.86
2023-04-01T02:03:36.774Z,839.39
2023-04-01T02:04:37.915Z,839.28
2023-04-01T02:05:36.742Z,839.03
2023-04-01T02:06:37.010Z,838.65
2023-04-01T02:07:36.739Z,839.06
2023-04-01T02:08:36.722Z,838.76
2023-04-01T02:09:37.845Z,838.96
2023-04-01T02:10:36.696Z,839.38
2023-04-01T02:11:36.710Z,839.89
2023-04-01T02:12:36.675Z,840.09
2023-04-01T02:13:36.659Z,840.38
2023-04-01T02:14:38.093Z,840.67
2023-04-01T02:15:36.717Z,840.97
2023-04-01T02:16:36.611Z,840.94
2023-04-01T02:17:36.681Z,841.48
2023-04-01T02:18:36.609Z,840.74
2023-04-01T02:19:36.601Z,841.37
2023-04-01T02:20:36.597Z,841.00
2023-04-01T02:21:36.569Z,841.85
2023-04-01T02:22:36.605Z,842.18
2023-04-01T02:23:36.535Z,842.40
2023-04-01T02:24:36.802Z,842.45
2023-04-01T02:25:37.420Z,842.37
2023-04-01T02:26:36.511Z,842.51
2023-04-01T02:27:36.475Z,842.92
2023-04-01T02:28:36.495Z,843.78
2023-04-01T02:29:37.302Z,843.90
2023-04-01T02:30:36.463Z,843.51
2023-04-01T02:31:36.497Z,843.68
2023-04-01T02:32:36.472Z,843.67
2023-04-01T02:33:36.425Z,843.89
2023-04-01T02:34:40.678Z,844.16
2023-04-01T02:35:36.414Z,844.06
2023-04-01T02:36:36.391Z,844.50
2023-04-01T02:37:38.522Z,845.10
2023-04-01T02:38:36.366Z,844.94
2023-04-01T02:39:36.678Z,846.24
2023-04-01T02:40:43.352Z,847.55
2023-04-01T02:41:43.359Z,849.61
2023-04-01T02:42:43.631Z,849.86
2023-04-01T02:43:36.300Z,850.49
2023-04-01T02:44:36.301Z,851.49
2023-04-01T02:45:36.288Z,852.24
2023-04-01T02:46:37.459Z,852.59
2023-04-01T02:47:36.320Z,853.42
2023-04-01T02:48:36.253Z,853.14
2023-04-01T02:49:36.271Z,853.30
2023-04-01T02:50:36.213Z,853.60
2023-04-01T02:51:36.228Z,853.62
2023-04-01T02:52:36.233Z,853.36
2023-04-01T02:53:37.286Z,853.20
2023-04-01T02:54:36.204Z,853.31
2023-04-01T02:55:37.050Z,853.81
2023-04-01T02:56:36.174Z,854.09
2023-04-01T02:57:36.158Z,854.36
2023-04-01T02:58:36.144Z,854.32
2023-04-01T02:59:36.164Z,854.21
2023-04-01T03:00:36.110Z,855.26
2023-04-01T03:01:36.150Z,855.89
2023-04-01T03:02:36.203Z,856.29
2023-04-01T03:03:36.133Z,856.14
2023-04-01T03:04:36.078Z,856.82
2023-04-01T03:05:36.272Z,860.36
2023-04-01T03:06:36.051Z,862.16
2023-04-01T03:07:36.951Z,862.89
2023-04-01T03:08:36.043Z,862.71
2023-04-01T03:09:36.027Z,863.90
2023-04-01T03:10:35.997Z,864.50
2023-04-01T03:11:35.989Z,865.08
2023-04-01T03:12:35.988Z,864.81
2023-04-01T03:13:35.991Z,866.00
2023-04-01T03:14:35.964Z,866.71
2023-04-01T03:15:35.958Z,866.49
2023-04-01T03:16:35.963Z,867.25
2023-04-01T03:17:35.956Z,868.21
2023-04-01T03:18:35.915Z,869.02
2023-04-01T03:19:35.911Z,869.44
2023-04-01T03:20:35.895Z,870.03
2023-04-01T03:21:35.879Z,870.02
2023-04-01T03:22:35.886Z,870.50
2023-04-01T03:23:36.802Z,871.68
2023-04-01T03:24:35.927Z,872.55
2023-04-01T03:25:35.843Z,873.08
2023-04-01T03:26:36.672Z,873.74
2023-04-01T03:27:35.839Z,874.55
2023-04-01T03:28:36.815Z,876.13
2023-04-01T03:29:35.828Z,877.33
2023-04-01T03:30:35.796Z,877.28
2023-04-01T03:31:35.844Z,876.91
2023-04-01T03:32:35.758Z,876.92
2023-04-01T03:33:35.728Z,876.73
2023-04-01T03:34:35.734Z,876.69
2023-04-01T03:35:35.741Z,876.52
2023-04-01T03:36:35.709Z,876.05
2023-04-01T03:37:35.692Z,875.03
2023-04-01T03:38:36.552Z,874.40
2023-04-01T03:39:35.679Z,874.07
2023-04-01T03:40:36.853Z,874.07
2023-04-01T03:41:35.637Z,874.13
2023-04-01T03:42:35.675Z,873.80
2023-04-01T03:43:35.632Z,873.77
2023-04-01T03:44:35.611Z,873.61
2023-04-01T03:45:35.583Z,874.65
2023-04-01T03:46:35.644Z,874.90
2023-04-01T03:47:35.711Z,874.10
2023-04-01T03:48:35.583Z,874.72
2023-04-01T03:49:35.566Z,873.71
2023-04-01T03:50:36.495Z,873.12
2023-04-01T03:51:35.544Z,873.57
2023-04-01T03:52:35.495Z,873.54
2023-04-01T03:53:35.510Z,873.11
2023-04-01T03:54:35.508Z,872.12
2023-04-01T03:55:35.471Z,871.13
2023-04-01T03:56:35.456Z,870.45
2023-04-01T03:57:35.553Z,869.88
2023-04-01T03:58:35.562Z,869.20
2023-04-01T03:59:35.451Z,867.95
2023-04-01T04:00:35.411Z,867.19
2023-04-01T04:01:35.455Z,866.74
2023-04-01T04:02:35.485Z,867.45
2023-04-01T04:03:35.539Z,867.65
2023-04-01T04:04:35.434Z,867.52
2023-04-01T04:05:35.699Z,866.40
2023-04-01T04:06:35.375Z,866.12
2023-04-01T04:07:35.340Z,865.11
2023-04-01T04:08:35.366Z,864.72
2023-04-01T04:09:35.325Z,864.66
2023-04-01T04:10:35.501Z,864.21
2023-04-01T04:11:35.323Z,863.82
2023-04-01T04:12:35.307Z,863.96
2023-04-01T04:13:36.250Z,863.39
2023-04-01T04:14:35.273Z,863.28
2023-04-01T04:15:36.059Z,863.03
2023-04-01T04:16:35.244Z,861.84
2023-04-01T04:17:35.326Z,860.97
2023-04-01T04:18:35.263Z,861.07
2023-04-01T04:19:35.196Z,861.24
2023-04-01T04:20:35.195Z,861.39
2023-04-01T04:21:36.647Z,861.11
2023-04-01T04:22:35.187Z,860.56
2023-04-01T04:23:36.300Z,860.83
2023-04-01T04:24:35.144Z,860.76
2023-04-01T04:25:38.404Z,860.20
2023-04-01T04:26:35.109Z,859.66
2023-04-01T04:27:43.005Z,859.10
2023-04-01T04:28:35.086Z,859.48
2023-04-01T04:29:35.108Z,859.92
2023-04-01T04:30:35.124Z,859.66
2023-04-01T04:31:35.600Z,859.86
2023-04-01T04:32:35.084Z,860.12
2023-04-01T04:33:35.838Z,859.37
2023-04-01T04:34:35.369Z,858.18
2023-04-01T04:35:35.357Z,858.19
2023-04-01T04:36:35.007Z,857.71
2023-04-01T04:37:35.032Z,857.03
2023-04-01T04:38:35.061Z,856.21
2023-04-01T04:39:34.965Z,855.81
2023-04-01T04:40:34.957Z,856.29
2023-04-01T04:41:37.167Z,855.91
2023-04-01T04:42:35.364Z,856.03
2023-04-01T04:43:34.925Z,855.68
2023-04-01T04:44:36.791Z,856.21
2023-04-01T04:45:36.828Z,857.12
2023-04-01T04:46:34.938Z,857.22
2023-04-01T04:47:34.957Z,856.87
2023-04-01T04:48:34.900Z,857.51
2023-04-01T04:49:34.904Z,858.14
2023-04-01T04:50:34.902Z,858.33
2023-04-01T04:51:34.856Z,858.70
2023-04-01T04:52:36.833Z,858.66
2023-04-01T04:53:34.802Z,859.41
2023-04-01T04:54:35.877Z,859.86
2023-04-01T04:55:35.158Z,861.16
2023-04-01T04:56:36.013Z,861.52
2023-04-01T04:57:37.156Z,862.12
2023-04-01T04:58:36.260Z,862.69
2023-04-01T04:59:34.738Z,863.19
2023-04-01T05:00:34.743Z,863.91
2023-04-01T05:01:34.774Z,865.08
2023-04-01T05:02:34.801Z,866.64
2023-04-01T05:03:34.791Z,867.92
2023-04-01T05:04:34.679Z,869.10
2023-04-01T05:05:34.896Z,870.11
2023-04-01T05:06:34.729Z,871.05
2023-04-01T05:07:34.699Z,872.08
2023-04-01T05:08:34.635Z,872.91
2023-04-01T05:09:34.643Z,873.90
2023-04-01T05:10:34.652Z,875.23
2023-04-01T05:11:35.096Z,875.86
2023-04-01T05:12:34.606Z,876.35
2023-04-01T05:13:34.610Z,876.66
2023-04-01T05:14:37.466Z,876.53
2023-04-01T05:15:34.894Z,876.71
2023-04-01T05:16:34.688Z,877.15
2023-04-01T05:17:34.631Z,877.88
2023-04-01T05:18:34.520Z,877.87
2023-04-01T05:19:35.543Z,879.16
2023-04-01T05:20:34.515Z,880.59
2023-04-01T05:21:34.486Z,880.61
2023-04-01T05:22:34.493Z,880.20
2023-04-01T05:23:34.487Z,881.07
2023-04-01T05:24:34.456Z,881.48
2023-04-01T05:25:34.875Z,880.70
2023-04-01T05:26:34.753Z,880.43
2023-04-01T05:27:34.474Z,880.59
2023-04-01T05:28:34.414Z,880.18
2023-04-01T05:29:34.426Z,880.47
2023-04-01T05:30:35.539Z,880.96
2023-04-01T05:31:34.438Z,882.57
2023-04-01T05:32:34.391Z,883.25
2023-04-01T05:33:34.453Z,883.53
2023-04-01T05:34:34.380Z,884.82
2023-04-01T05:35:34.574Z,885.52
2023-04-01T05:36:35.420Z,885.41
2023-04-01T05:37:34.309Z,886.89
2023-04-01T05:38:35.748Z,885.60
2023-04-01T05:39:34.302Z,884.29
2023-04-01T05:40:34.264Z,882.95
2023-04-01T05:41:34.282Z,881.87
2023-04-01T05:42:36.057Z,880.93
2023-04-01T05:43:34.238Z,880.11
2023-04-01T05:44:34.246Z,880.40
2023-04-01T05:45:34.841Z,881.08
2023-04-01T05:46:34.660Z,881.58
2023-04-01T05:47:34.264Z,881.53
2023-04-01T05:48:34.189Z,882.25
2023-04-01T05:49:34.181Z,882.78
2023-04-01T05:50:36.067Z,884.62
2023-04-01T05:51:34.217Z,885.22
2023-04-01T05:52:34.193Z,886.21
2023-04-01T05:53:34.133Z,886.45
2023-04-01T05:54:34.110Z,886.59
2023-04-01T05:55:36.863Z,887.50
2023-04-01T05:56:35.064Z,888.45
2023-04-01T05:57:35.073Z,888.91
2023-04-01T05:58:34.098Z,889.77
2023-04-01T05:59:35.160Z,889.82
2023-04-01T06:00:34.041Z,890.38
2023-04-01T06:01:34.021Z,890.51
2023-04-01T06:02:34.108Z,890.85
2023-04-01T06:03:34.115Z,890.79
2023-04-01T06:04:34.881Z,890.80
2023-04-01T06:05:34.191Z,891.07
2023-04-01T06:06:33.992Z,892.10
2023-04-01T06:07:33.957Z,893.21
2023-04-01T06:08:33.962Z,894.11
2023-04-01T06:09:33.941Z,894.74
2023-04-01T06:10:34.772Z,895.31
2023-04-01T06:11:42.750Z,894.80
2023-04-01T06:12:42.215Z,893.69
2023-04-01T06:13:42.382Z,893.61
2023-04-01T06:14:41.221Z,892.96
2023-04-01T06:15:44.260Z,892.39
2023-04-01T06:16:33.931Z,894.17
2023-04-01T06:17:34.138Z,894.11
2023-04-01T06:18:34.135Z,892.53
2023-04-01T06:19:34.830Z,890.41
2023-04-01T06:20:34.261Z,888.22
2023-04-01T06:21:34.322Z,885.56
2023-04-01T06:23:44.371Z,882.20
2023-04-01T06:24:44.330Z,879.31
2023-04-01T06:25:44.640Z,878.54
2023-04-01T06:26:44.321Z,879.08
2023-04-01T06:27:44.326Z,880.06
2023-04-01T06:28:44.296Z,881.09
2023-04-01T06:29:44.576Z,882.77
2023-04-01T06:30:44.283Z,882.88
2023-04-01T06:31:44.247Z,881.95
2023-04-01T06:32:44.265Z,880.56
2023-04-01T06:33:44.245Z,880.04
2023-04-01T06:34:44.201Z,880.55
2023-04-01T06:35:44.259Z,882.44
2023-04-01T06:36:44.210Z,884.76
2023-04-01T06:37:44.188Z,886.67
2023-04-01T06:38:44.197Z,887.35
2023-04-01T06:39:44.181Z,891.20
2023-04-01T06:40:44.167Z,894.01
2023-04-01T06:41:44.133Z,894.53
2023-04-01T06:42:44.158Z,894.63
2023-04-01T06:43:44.114Z,890.68
2023-04-01T06:44:44.139Z,885.33
2023-04-01T06:45:44.152Z,882.52
2023-04-01T06:46:44.080Z,881.91
2023-04-01T06:47:45.573Z,878.71
2023-04-01T06:48:44.060Z,875.72
2023-04-01T06:49:44.046Z,873.88
2023-04-01T06:50:44.043Z,872.93
2023-04-01T06:51:44.041Z,873.14
2023-04-01T06:52:45.023Z,871.57
2023-04-01T06:53:44.005Z,871.17
2023-04-01T06:54:44.009Z,869.03
2023-04-01T06:55:43.979Z,869.04
2023-04-01T06:56:43.978Z,869.34
2023-04-01T06:57:43.930Z,869.63
2023-04-01T06:58:43.954Z,870.32
2023-04-01T06:59:43.912Z,872.19
2023-04-01T07:00:43.927Z,874.70
2023-04-01T07:01:44.002Z,875.13
2023-04-01T07:02:44.005Z,875.74
2023-04-01T07:03:43.901Z,877.47
2023-04-01T07:04:43.972Z,875.64
2023-04-01T07:05:43.901Z,873.14
2023-04-01T07:06:43.833Z,870.59
2023-04-01T07:07:43.841Z,870.57
2023-04-01T07:08:43.808Z,872.42
2023-04-01T07:09:43.803Z,879.69
2023-04-01T07:10:43.800Z,889.49
2023-04-01T07:11:43.820Z,897.62
2023-04-01T07:12:43.800Z,900.39
2023-04-01T07:13:43.792Z,902.33
2023-04-01T07:14:43.783Z,909.87
2023-04-01T07:15:43.810Z,928.82
2023-04-01T07:16:43.798Z,940.49
2023-04-01T07:17:43.761Z,948.72
2023-04-01T07:18:43.706Z,967.91
2023-04-01T07:19:43.764Z,975.93
2023-04-01T07:20:43.706Z,975.73
2023-04-01T07:21:43.735Z,961.98
2023-04-01T07:22:43.663Z,940.10
2023-04-01T07:23:43.665Z,926.78
2023-04-01T07:24:43.640Z,924.31
2023-04-01T07:25:43.653Z,922.47
2023-04-01T07:26:44.233Z,928.31
2023-04-01T07:27:43.670Z,936.51
2023-04-01T07:28:43.603Z,944.74
2023-04-01T07:29:43.590Z,951.20
2023-04-01T07:30:43.608Z,954.50
2023-04-01T07:31:43.654Z,953.48
2023-04-01T07:32:43.586Z,947.36
2023-04-01T07:33:43.552Z,936.75
2023-04-01T07:34:43.567Z,929.19
2023-04-01T07:35:43.604Z,930.00
2023-04-01T07:36:43.594Z,933.05
2023-04-01T07:37:43.527Z,922.89
2023-04-01T07:38:43.599Z,926.18
2023-04-01T07:39:43.535Z,940.75
2023-04-01T07:40:43.508Z,942.56
2023-04-01T07:41:43.460Z,945.83
2023-04-01T07:42:43.473Z,948.65
2023-04-01T07:43:43.459Z,947.68
2023-04-01T07:44:43.425Z,945.17
2023-04-01T07:45:43.431Z,951.81
2023-04-01T07:46:43.747Z,948.57
2023-04-01T07:47:43.496Z,945.51
2023-04-01T07:48:43.394Z,933.26
2023-04-01T07:49:43.400Z,919.35
2023-04-01T07:50:43.439Z,908.99
2023-04-01T07:51:43.328Z,906.45
2023-04-01T07:52:43.346Z,905.08
2023-04-01T07:53:43.334Z,914.68
2023-04-01T07:54:43.326Z,931.32
2023-04-01T07:55:43.383Z,943.03
2023-04-01T07:56:43.327Z,950.14
2023-04-01T07:57:43.319Z,955.36
2023-04-01T07:58:43.272Z,957.16
2023-04-01T07:59:43.242Z,958.36
2023-04-01T08:00:43.247Z,961.37
2023-04-01T08:01:43.513Z,961.33
2023-04-01T08:02:43.382Z,961.68
2023-04-01T08:03:50.774Z,961.81
2023-04-01T08:04:43.325Z,957.73
2023-04-01T08:05:44.541Z,948.41
2023-04-01T08:06:43.209Z,939.38
2023-04-01T08:07:43.184Z,931.27
2023-04-01T08:08:43.443Z,931.40
2023-04-01T08:09:43.201Z,930.84
2023-04-01T08:10:43.202Z,930.99
2023-04-01T08:11:43.811Z,925.89
2023-04-01T08:12:43.131Z,920.81
2023-04-01T08:13:43.115Z,913.82
2023-04-01T08:14:43.445Z,916.61
2023-04-01T08:15:43.064Z,923.51
2023-04-01T08:16:43.136Z,928.74
2023-04-01T08:17:43.101Z,939.03
2023-04-01T08:18:43.039Z,947.62
2023-04-01T08:19:43.027Z,951.28
2023-04-01T08:20:43.063Z,952.76
2023-04-01T08:21:43.006Z,955.44
2023-04-01T08:22:43.053Z,960.51
2023-04-01T08:23:42.976Z,967.66
2023-04-01T08:24:47.665Z,967.88
2023-04-01T08:25:44.264Z,966.36
2023-04-01T08:26:43.006Z,958.28
2023-04-01T08:27:42.972Z,960.32
2023-04-01T08:28:42.984Z,961.57
2023-04-01T08:29:42.944Z,959.70
2023-04-01T08:30:42.967Z,960.07
2023-04-01T08:31:42.955Z,967.34
2023-04-01T08:32:43.025Z,977.49
2023-04-01T08:33:42.862Z,987.63
2023-04-01T08:34:42.893Z,982.44
2023-04-01T08:35:43.142Z,974.07
2023-04-01T08:36:42.825Z,961.97
2023-04-01T08:37:42.862Z,945.22
2023-04-01T08:38:42.823Z,945.13
2023-04-01T08:39:42.801Z,954.62
2023-04-01T08:40:42.830Z,959.61
2023-04-01T08:41:42.794Z,960.56
2023-04-01T08:42:42.772Z,961.49
2023-04-01T08:43:42.777Z,962.45
2023-04-01T08:44:42.751Z,966.10
2023-04-01T08:45:42.786Z,970.24
2023-04-01T08:46:42.741Z,965.65
2023-04-01T08:47:42.822Z,963.39
2023-04-01T08:48:42.751Z,954.31
2023-04-01T08:49:42.710Z,949.72
2023-04-01T08:50:42.705Z,947.11
2023-04-01T08:51:42.665Z,955.64
2023-04-01T08:52:42.660Z,964.08
2023-04-01T08:53:42.648Z,966.02
2023-04-01T08:54:42.626Z,971.69
2023-04-01T08:55:42.691Z,976.07
2023-04-01T08:56:42.672Z,970.28
2023-04-01T08:57:42.627Z,971.62
2023-04-01T08:58:42.600Z,974.13
2023-04-01T08:59:42.704Z,973.64
2023-04-01T09:00:42.624Z,966.54
2023-04-01T09:01:42.567Z,960.67
2023-04-01T09:02:42.659Z,966.98
2023-04-01T09:03:42.596Z,965.83
2023-04-01T09:04:42.548Z,973.38
2023-04-01T09:05:42.558Z,975.32
2023-04-01T09:06:42.545Z,983.06
2023-04-01T09:07:42.892Z,985.41
2023-04-01T09:08:42.472Z,973.91
2023-04-01T09:09:42.475Z,975.23
2023-04-01T09:10:42.533Z,977.96
2023-04-01T09:11:42.470Z,968.55
2023-04-01T09:12:42.503Z,953.46
2023-04-01T09:13:42.432Z,954.77
2023-04-01T09:14:45.172Z,961.05
2023-04-01T09:15:42.494Z,971.19
2023-04-01T09:16:42.423Z,961.38
2023-04-01T09:17:42.417Z,957.24
2023-04-01T09:18:42.367Z,951.58
2023-04-01T09:19:42.387Z,942.04
2023-04-01T09:20:42.343Z,938.50
2023-04-01T09:21:42.375Z,942.88
2023-04-01T09:22:42.412Z,953.91
2023-04-01T09:23:42.295Z,951.39
2023-04-01T09:24:42.290Z,955.74
2023-04-01T09:25:42.289Z,969.98
2023-04-01T09:26:42.329Z,971.05
2023-04-01T09:27:42.278Z,980.80
2023-04-01T09:28:42.292Z,976.27
2023-04-01T09:29:42.285Z,964.04
2023-04-01T09:30:42.319Z,966.45
2023-04-01T09:31:42.385Z,962.57
2023-04-01T09:32:42.248Z,953.61
2023-04-01T09:33:42.199Z,943.54
2023-04-01T09:34:42.209Z,930.51
2023-04-01T09:35:42.226Z,925.26
2023-04-01T09:36:42.162Z,930.78
2023-04-01T09:37:42.286Z,939.07
2023-04-01T09:38:42.150Z,958.14
2023-04-01T09:39:42.168Z,959.33
2023-04-01T09:40:42.141Z,951.55
2023-04-01T09:41:42.160Z,947.86
2023-04-01T09:42:42.163Z,970.69
2023-04-01T09:43:42.092Z,987.76
2023-04-01T09:44:42.965Z,1001.91
2023-04-01T09:45:42.077Z,1009.50
2023-04-01T09:46:42.144Z,1013.79
2023-04-01T09:47:49.138Z,1013.53
2023-04-01T09:48:42.364Z,1011.76
2023-04-01T09:49:42.617Z,1010.04
2023-04-01T09:50:50.575Z,1003.25
2023-04-01T09:51:49.510Z,1002.77
2023-04-01T09:52:49.010Z,1010.73
2023-04-01T09:53:41.972Z,1009.80
2023-04-01T09:54:42.044Z,998.03
2023-04-01T09:55:41.972Z,981.45
2023-04-01T09:56:41.946Z,975.61
2023-04-01T09:57:41.976Z,974.83
2023-04-01T09:58:43.367Z,966.23
2023-04-01T09:59:41.914Z,968.69
2023-04-01T10:00:41.910Z,979.09
2023-04-01T10:01:42.057Z,981.66
2023-04-01T10:02:42.041Z,986.21
2023-04-01T10:03:41.867Z,988.08
2023-04-01T10:04:41.854Z,980.29
2023-04-01T10:05:43.691Z,981.10
2023-04-01T10:06:41.831Z,983.23
2023-04-01T10:07:41.860Z,982.72
2023-04-01T10:08:41.793Z,994.32
2023-04-01T10:09:41.951Z,1000.51
2023-04-01T10:10:41.788Z,994.50
2023-04-01T10:11:41.777Z,986.32
2023-04-01T10:12:41.784Z,953.70
2023-04-01T10:13:41.756Z,916.38
2023-04-01T10:14:41.748Z,922.15
2023-04-01T10:15:41.754Z,947.99
2023-04-01T10:16:41.767Z,945.72
2023-04-01T10:17:41.758Z,923.64
2023-04-01T10:18:41.708Z,900.61
2023-04-01T10:19:41.718Z,938.57
2023-04-01T10:20:41.665Z,962.52
2023-04-01T10:21:41.672Z,954.60
2023-04-01T10:22:41.692Z,947.21
2023-04-01T10:23:41.636Z,945.52
2023-04-01T10:24:41.678Z,933.07
2023-04-01T10:25:41.616Z,945.55
2023-04-01T10:26:41.881Z,950.89
2023-04-01T10:27:41.689Z,976.51
2023-04-01T10:28:41.568Z,993.15
2023-04-01T10:29:41.593Z,997.96
2023-04-01T10:30:41.573Z,1006.86
2023-04-01T10:31:41.620Z,1018.80
2023-04-01T10:32:42.923Z,1020.32
2023-04-01T10:33:41.520Z,1027.54
2023-04-01T10:34:41.524Z,1032.71
2023-04-01T10:35:41.647Z,1035.01
2023-04-01T10:36:41.484Z,1035.93
2023-04-01T10:37:41.511Z,1035.98
2023-04-01T10:38:41.480Z,1037.69
2023-04-01T10:39:41.466Z,1036.34
2023-04-01T10:40:41.532Z,1036.18
2023-04-01T10:41:41.536Z,1037.34
2023-04-01T10:42:41.442Z,1037.21
2023-04-01T10:43:41.418Z,1037.60
2023-04-01T10:44:41.404Z,1037.38
2023-04-01T10:45:41.459Z,1036.90
2023-04-01T10:46:41.455Z,1036.55
2023-04-01T10:47:41.395Z,1036.00
2023-04-01T10:48:41.369Z,1035.47
2023-04-01T10:49:41.564Z,1034.78
2023-04-01T10:50:43.173Z,1033.48
2023-04-01T10:51:41.319Z,1029.34
2023-04-01T10:52:41.464Z,1026.98
2023-04-01T10:53:41.292Z,1019.51
2023-04-01T10:54:41.332Z,1014.65
2023-04-01T10:55:41.281Z,996.36
2023-04-01T10:56:41.537Z,993.89
2023-04-01T10:57:41.247Z,1000.63
2023-04-01T10:58:41.224Z,999.77
2023-04-01T10:59:41.252Z,988.58
2023-04-01T11:00:41.222Z,988.63
2023-04-01T11:01:41.323Z,996.22
2023-04-01T11:02:41.260Z,991.79
2023-04-01T11:03:41.297Z,980.99
2023-04-01T11:04:41.148Z,976.56
2023-04-01T11:05:41.198Z,972.98
2023-04-01T11:06:41.180Z,992.66
2023-04-01T11:07:41.138Z,1003.07
2023-04-01T11:08:41.124Z,1010.02
2023-04-01T11:09:41.114Z,1018.05
2023-04-01T11:10:41.125Z,1021.09
2023-04-01T11:11:41.093Z,1019.94
2023-04-01T11:12:41.085Z,1019.41
2023-04-01T11:13:41.106Z,1013.04
2023-04-01T11:14:41.323Z,997.35
2023-04-01T11:15:41.189Z,997.47
2023-04-01T11:16:41.037Z,1006.23
2023-04-01T11:17:41.094Z,1000.96
2023-04-01T11:18:40.997Z,989.12
2023-04-01T11:19:41.015Z,984.99
2023-04-01T11:20:40.985Z,983.28
2023-04-01T11:21:40.986Z,1006.75
2023-04-01T11:22:40.986Z,1007.56
2023-04-01T11:23:40.974Z,1015.84
2023-04-01T11:24:40.938Z,1029.93
2023-04-01T11:25:40.941Z,1023.52
2023-04-01T11:26:40.991Z,1003.06
2023-04-01T11:27:40.900Z,987.43
2023-04-01T11:28:41.211Z,1001.08
2023-04-01T11:29:47.021Z,1000.24
2023-04-01T11:30:41.907Z,973.30
2023-04-01T11:31:42.819Z,916.38
2023-04-01T11:32:42.843Z,902.99
2023-04-01T11:33:41.139Z,905.64
2023-04-01T11:34:40.816Z,927.75
2023-04-01T11:35:40.843Z,953.91
2023-04-01T11:36:40.833Z,977.47
2023-04-01T11:37:40.844Z,978.93
2023-04-01T11:38:40.878Z,974.93
2023-04-01T11:39:42.742Z,964.18
2023-04-01T11:40:42.610Z,953.51
2023-04-01T11:41:41.067Z,960.84
2023-04-01T11:42:40.786Z,975.43
2023-04-01T11:43:40.766Z,995.27
2023-04-01T11:44:40.709Z,1009.42
2023-04-01T11:45:40.742Z,1016.69
2023-04-01T11:46:40.802Z,1019.51
2023-04-01T11:47:40.708Z,1023.81
2023-04-01T11:48:40.679Z,1024.77
2023-04-01T11:49:40.699Z,1023.80
2023-04-01T11:50:40.662Z,1018.73
2023-04-01T11:51:40.626Z,1014.53
2023-04-01T11:52:40.618Z,1011.72
2023-04-01T11:53:40.626Z,1014.02
2023-04-01T11:54:40.654Z,1007.68
2023-04-01T11:55:40.615Z,992.61
2023-04-01T11:56:40.678Z,986.04
2023-04-01T11:57:40.586Z,988.72
2023-04-01T11:58:40.547Z,992.82
2023-04-01T11:59:40.574Z,989.95
2023-04-01T12:00:40.573Z,983.53
2023-04-01T12:01:41.264Z,979.55
2023-04-01T12:02:40.643Z,959.38
2023-04-01T12:03:40.581Z,931.26
2023-04-01T12:04:40.552Z,889.03
2023-04-01T12:05:40.488Z,881.65
2023-04-01T12:06:40.530Z,896.21
2023-04-01T12:07:40.443Z,925.78
2023-04-01T12:08:40.427Z,938.25
2023-04-01T12:09:40.442Z,939.01
2023-04-01T12:10:40.434Z,950.24
2023-04-01T12:11:40.408Z,954.84
2023-04-01T12:12:45.327Z,940.81
2023-04-01T12:13:41.382Z,955.29
2023-04-01T12:14:40.364Z,970.21
2023-04-01T12:15:40.363Z,956.47
2023-04-01T12:16:40.332Z,949.44
2023-04-01T12:17:40.424Z,954.87
2023-04-01T12:18:40.342Z,946.58
2023-04-01T12:19:40.324Z,939.30
2023-04-01T12:20:40.297Z,935.03
2023-04-01T12:21:40.294Z,918.03
2023-04-01T12:22:40.273Z,906.20
2023-04-01T12:23:40.263Z,931.24
2023-04-01T12:24:40.262Z,986.00
2023-04-01T12:25:40.234Z,1003.86
2023-04-01T12:26:40.219Z,981.66
2023-04-01T12:27:40.237Z,945.56